Flight Track Log - Related Links

Times and Time Zones

All times are in EDT time to prevent confusion due to time zone crossing. See the N27XP flight status page for this flight to view local times or setup timezone preferences in your user account.

Time Position Orientation Groundspeed Altitude Reporting Facility
EDT Latitude Longitude Course Direction KTS MPH feet Rate Location/Type
Wed 12:50:09 PM 41.2936 -95.9003 146° Southeast 160 184 1,400  Level Minneapolis Center
Wed 12:51:21 PM 41.2467 -95.8586 146° Southeast 190 219 4,300 2,059 Climbing Minneapolis Center
Wed 12:51:51 PM 41.2397 -95.8142 102° East 204 235 4,900 1,696 Climbing Minneapolis Center
Wed 12:52:53 PM 41.2275 -95.7133 99° East 252 290 6,900 2,081 Climbing Minneapolis Center
Wed 12:53:55 PM 41.2139 -95.6061 100° East 277 319 9,200 1,887 Climbing Minneapolis Center
Wed 12:54:57 PM 41.1956 -95.4900 102° East 299 344 10,800 1,548 Climbing Minneapolis Center
Wed 12:55:59 PM 41.1681 -95.3633 106° East 346 398 12,400 1,403 Climbing Minneapolis Center
Wed 12:57:01 PM 41.1408 -95.2342 106° East 358 412 13,700 1,500 Climbing Minneapolis Center
Wed 12:58:03 PM 41.1086 -95.0764 105° East 367 422 15,500 1,440 Climbing Minneapolis Center
Wed 12:59:06 PM 41.0825 -94.9447 105° East 369 425 16,700 1,143 Climbing Minneapolis Center
Wed 01:00:09 PM 41.0542 -94.8122 106° East 372 428 17,900 1,152 Climbing Minneapolis Center
Wed 01:01:11 PM 41.0278 -94.6772 104° East 375 432 19,100 1,152 Climbing Minneapolis Center
Wed 01:02:14 PM 40.9958 -94.5342 106° East 383 441 20,300 1,200 Climbing Minneapolis Center
Wed 01:03:16 PM 40.9669 -94.3992 106° East 385 443 21,600 1,113 Climbing Minneapolis Center
Wed 01:04:18 PM 40.9378 -94.2628 106° East 388 447 22,600 1,210 Climbing Minneapolis Center
Wed 01:05:20 PM 40.9031 -94.0953 105° East 394 453 24,100 1,403 Climbing Minneapolis Center
Wed 01:06:22 PM 40.8706 -93.9550 107° East 400 460 25,500 1,210 Climbing Minneapolis Center
Wed 01:07:24 PM 40.8400 -93.8136 106° East 402 463 26,600 1,113 Climbing Minneapolis Center
Wed 01:08:26 PM 40.8092 -93.6681 106° East 409 471 27,800 1,113 Climbing Minneapolis Center
Wed 01:09:28 PM 40.7778 -93.5233 106° East 412 474 28,900 1,065 Climbing Minneapolis Center
Wed 01:10:30 PM 40.7406 -93.3481 106° East 414 476 30,000 919 Climbing Minneapolis Center
Wed 01:11:32 PM 40.7078 -93.2017 106° East 417 480 30,800 662 Climbing Minneapolis Center
Wed 01:12:46 PM 40.6739 -93.0533 107° East 420 483 31,500 832 Climbing Minneapolis Center
Wed 01:13:49 PM 40.6342 -92.8719 106° East 427 491 32,700 1,219 Climbing Minneapolis Center
Wed 01:14:54 PM 40.5942 -92.6964 107° East 418 481 34,100 1,119 Climbing Chicago Center
Wed 01:15:47 PM 40.5672 -92.5753 106° East 415 478 34,900 835 Climbing Kansas City Center
Wed 01:16:49 PM 40.5333 -92.4294 107° East 417 480 35,700 774 Climbing Kansas City Center
Wed 01:17:51 PM 40.5000 -92.2858 107° East 417 480 36,500 582 Climbing Kansas City Center
Wed 01:19:03 PM 40.4583 -92.1122 107° East 419 482 37,000 224 Climbing Chicago Center
Wed 01:20:05 PM 40.4161 -91.9325 107° East 431 496 37,000  Level Chicago Center
Wed 01:20:57 PM 40.3867 -91.8083 107° East 438 504 37,000  Level Kansas City Center
Wed 01:21:59 PM 40.3486 -91.6511 108° East 450 518 37,000  Level Kansas City Center
Wed 01:23:01 PM 40.3111 -91.4906 107° East 459 528 37,000  Level Kansas City Center
Wed 01:24:03 PM 40.2719 -91.3297 108° East 465 535 37,000  Level Kansas City Center
Wed 01:25:05 PM 40.2244 -91.1322 107° East 475 547 37,000  Level Kansas City Center
Wed 01:26:07 PM 40.1850 -90.9678 107° East 477 549 37,000  Level Kansas City Center
Wed 01:27:09 PM 40.1433 -90.7994 108° East 474 545 37,000  Level Kansas City Center
Wed 01:28:11 PM 40.1017 -90.6367 108° East 474 545 37,000  Level Kansas City Center
Wed 01:29:13 PM 40.0625 -90.4769 108° East 469 540 37,000  Level Kansas City Center
Wed 01:30:15 PM 40.0225 -90.3161 108° East 468 539 37,000  Level Kansas City Center
Wed 01:31:17 PM 39.9736 -90.1247 108° East 467 537 37,000  Level Kansas City Center
Wed 01:32:20 PM 39.9317 -89.9639 109° East 469 540 37,000  Level Kansas City Center
Wed 01:33:22 PM 39.8911 -89.8042 108° East 469 540 37,000  Level Kansas City Center
Wed 01:34:24 PM 39.8500 -89.6425 108° East 471 542 37,000  Level Kansas City Center
Wed 01:35:26 PM 39.8072 -89.4811 109° East 474 545 37,000  Level Kansas City Center
Wed 01:36:28 PM 39.7661 -89.3214 108° East 471 542 37,000  Level Kansas City Center
Wed 01:37:30 PM 39.7142 -89.1300 109° East 470 541 37,000  Level Kansas City Center
Wed 01:38:32 PM 39.6719 -88.9689 109° East 471 542 37,000  Level Kansas City Center
Wed 01:39:34 PM 39.6289 -88.8092 109° East 471 542 37,000  Level Kansas City Center
Wed 01:40:36 PM 39.5858 -88.6472 109° East 474 545 37,000  Level Kansas City Center
Wed 01:41:38 PM 39.5419 -88.4906 110° East 470 541 37,000  Level Kansas City Center
Wed 01:42:40 PM 39.4903 -88.2972 109° East 469 540 37,000  Level Kansas City Center
Wed 01:43:42 PM 39.4453 -88.1358 110° East 472 543 37,000  Level Kansas City Center
Wed 01:44:44 PM 39.4006 -87.9733 110° East 474 545 37,000  Level Kansas City Center
Wed 01:45:46 PM 39.3561 -87.8100 109° East 477 549 37,000  Level Kansas City Center
Wed 01:46:47 PM 39.3097 -87.6528 111° Southeast 475 547 37,000  Level Indianapolis Center
Wed 01:47:49 PM 39.2614 -87.4803 110° East 473 544 37,000  Level Indianapolis Center
Wed 01:48:51 PM 39.2161 -87.3214 110° East 473 544 37,000  Level Indianapolis Center
Wed 01:49:53 PM 39.1694 -87.1617 111° Southeast 477 549 37,000  Level Indianapolis Center
Wed 01:50:55 PM 39.1175 -86.9778 110° East 471 542 37,000  Level Indianapolis Center
Wed 01:51:57 PM 39.0711 -86.8169 110° East 476 548 37,000  Level Indianapolis Center
Wed 01:52:59 PM 39.0250 -86.6572 110° East 474 545 37,000  Level Indianapolis Center
Wed 01:54:01 PM 38.9778 -86.4992 111° Southeast 476 548 37,000  Level Indianapolis Center
Wed 01:55:03 PM 38.9317 -86.3436 111° Southeast 472 543 37,000  Level Indianapolis Center
Wed 01:56:04 PM 38.8839 -86.1786 110° East 473 544 37,000  Level Indianapolis Center
Wed 01:57:06 PM 38.8369 -86.0211 111° Southeast 472 543 37,000  Level Indianapolis Center
Wed 01:58:08 PM 38.7836 -85.8450 111° Southeast 469 540 37,000  Level Indianapolis Center
Wed 01:59:10 PM 38.7372 -85.6917 111° Southeast 466 536 37,000  Level Indianapolis Center
Wed 02:00:12 PM 38.6908 -85.5383 111° Southeast 465 535 37,000  Level Indianapolis Center
Wed 02:01:14 PM 38.6433 -85.3858 112° Southeast 463 533 37,000  Level Indianapolis Center
Wed 02:02:16 PM 38.5931 -85.2161 111° Southeast 463 533 37,000  Level Indianapolis Center
Wed 02:03:17 PM 38.5450 -85.0556 111° Southeast 463 533 37,000  Level Indianapolis Center
Wed 02:04:19 PM 38.4978 -84.9042 112° Southeast 459 528 37,000  Level Indianapolis Center
Wed 02:05:21 PM 38.4478 -84.7544 113° Southeast 457 526 37,000  Level Indianapolis Center
Wed 02:06:23 PM 38.4006 -84.6036 112° Southeast 458 527 37,000  Level Indianapolis Center
Wed 02:07:25 PM 38.3531 -84.4497 111° Southeast 462 532 37,000  Level Indianapolis Center
Wed 02:08:27 PM 38.2972 -84.2736 112° Southeast 460 529 37,000  Level Indianapolis Center
Wed 02:09:28 PM 38.2478 -84.1214 112° Southeast 463 533 37,000  Level Indianapolis Center
Wed 02:10:30 PM 38.1992 -83.9706 112° Southeast 461 531 37,000  Level Indianapolis Center
Wed 02:11:32 PM 38.1500 -83.8197 112° Southeast 458 527 37,000  Level Indianapolis Center
Wed 02:12:34 PM 38.1011 -83.6686 112° Southeast 460 529 37,000  Level Indianapolis Center
Wed 02:13:36 PM 38.0528 -83.5186 112° Southeast 457 526 37,000  Level Indianapolis Center
Wed 02:14:38 PM 38.0047 -83.3719 113° Southeast 451 519 37,000  Level Indianapolis Center
Wed 02:15:39 PM 37.9469 -83.1997 113° Southeast 452 520 37,000  Level Indianapolis Center
Wed 02:16:41 PM 37.8983 -83.0522 113° Southeast 451 519 37,000  Level Indianapolis Center
Wed 02:17:43 PM 37.8486 -82.9028 113° Southeast 455 524 37,000  Level Indianapolis Center
Wed 02:18:45 PM 37.7983 -82.7547 113° Southeast 456 525 37,000  Level Indianapolis Center
Wed 02:19:47 PM 37.7492 -82.6056 113° Southeast 457 526 37,000 -242 Level Indianapolis Center
Wed 02:20:49 PM 37.6967 -82.4553 114° Southeast 464 534 36,500 -780 Descending Indianapolis Center
Wed 02:21:50 PM 37.6433 -82.2981 113° Southeast 481 554 35,400 -1,122 Descending Indianapolis Center
Wed 02:22:52 PM 37.5825 -82.1175 113° Southeast 476 548 34,200 -1,113 Descending Indianapolis Center
Wed 02:23:54 PM 37.5294 -81.9628 113° Southeast 478 550 33,100 -1,016 Descending Indianapolis Center
Wed 02:24:56 PM 37.4750 -81.8067 114° Southeast 482 555 32,100 -1,016 Descending Indianapolis Center
Wed 02:25:58 PM 37.4206 -81.6531 114° Southeast 480 552 31,000 -1,016 Descending Indianapolis Center
Wed 02:27:00 PM 37.3656 -81.4953 114° Southeast 486 559 30,000 -968 Descending Indianapolis Center
Wed 02:28:02 PM 37.3114 -81.3456 114° Southeast 486 559 29,000 -484 Descending Indianapolis Center
Wed 02:29:04 PM 37.2483 -81.1644 114° Southeast 487 560 29,000  Level Indianapolis Center
Wed 02:30:06 PM 37.2153 -81.0044 104° East 489 563 29,000 -290 Level Indianapolis Center
Wed 02:31:08 PM 37.1881 -80.8425 102° East 490 564 28,400 -758 Descending Indianapolis Center
Wed 02:31:41 PM 37.1694 -80.7500 104° East 486 559 27,800 -2,170 Descending Washington Center
Wed 02:32:42 PM 37.1414 -80.5789 102° East 491 565 25,000 -958 Descending Washington Center
Wed 02:33:40 PM 37.1103 -80.4153 103° East 491 565 25,900 -151 Climbing Washington Center
Wed 02:34:41 PM 37.0633 -80.2381 108° East 486 559 24,700 -950 Descending Washington Center
Wed 02:35:40 PM 37.0169 -80.0817 110° East 486 559 24,000 -350 Descending Washington Center
Wed 02:36:41 PM 36.9739 -79.9492 112° Southeast 459 528 24,000 -443 Level Washington Center
Wed 02:37:42 PM 36.9383 -79.8353 111° Southeast 403 464 23,100 -958 Descending Washington Center
Wed 02:38:40 PM 36.8969 -79.7086 112° Southeast 390 449 22,100 -958 Descending Washington Center
Wed 02:39:41 PM 36.8575 -79.5817 111° Southeast 390 449 21,200 -545 Descending Washington Center
Wed 02:40:41 PM 36.8158 -79.4472 111° Southeast 380 437 21,000 -248 Descending Washington Center
Wed 02:41:42 PM 36.7758 -79.3261 112° Southeast 380 437 20,700 -908 Descending Washington Center
Wed 02:42:40 PM 36.7361 -79.1997 111° Southeast 380 437 19,200 -1,361 Descending Washington Center
Wed 02:43:41 PM 36.6997 -79.0892 112° Southeast 375 432 18,000 -1,082 Descending Washington Center
Wed 02:44:42 PM 36.6353 -79.0061 134° Southeast 325 374 17,000 -1,412 Descending Washington Center
Wed 02:45:40 PM 36.5444 -78.9761 165° South 313 360 15,200 -2,391 Descending Washington Center
Wed 02:46:50 PM 36.4344 -78.9481 168° South 348 400 11,900 -2,262 Descending Washington Center
Wed 02:47:42 PM 36.3664 -78.9272 166° South 343 395 10,600 -1,309 Descending Washington Center
Wed 02:48:40 PM 36.2669 -78.8972 166° South 343 395 9,500 -908 Descending Washington Center
Wed 02:49:41 PM 36.1925 -78.8761 167° South 321 369 8,800 -689 Descending Washington Center
Wed 02:50:42 PM 36.1075 -78.8544 168° South 301 346 8,100 -454 Descending Washington Center
Wed 02:51:40 PM 36.0347 -78.8414 172° South 287 330 7,900 -655 Descending Washington Center
Wed 02:52:41 PM 35.9719 -78.8489 186° South 249 287 6,800 -1,131 Descending Washington Center
Wed 02:53:42 PM 35.9247 -78.8958 219° Southwest 221 254 5,600 -1,261 Descending Washington Center
Wed 02:54:40 PM 35.8836 -78.9506 227° Southwest 221 254 4,300 -1,364 Descending Washington Center
Wed 02:55:10 PM 35.8603 -78.9675 210° Southwest 227 261 3,600 -1,300 Descending Washington Center
Wed 02:55:40 PM 35.8356 -78.9483 148° Southeast 187 215 3,000 -1,000 Descending Washington Center
Wed 02:56:16 PM 35.8264 -78.9069 105° East 185 213 2,500 -866 Descending Washington Center
Wed 02:57:17 PM 35.8258 -78.8531 91° East 151 174 1,600 -787 Descending Washington Center
Wed 02:58:18 PM 35.8475 -78.8183 52° Northeast 116 133 900 -689 Descending Washington Center
Wed 03:00:00 PM 35.8667 -78.7833 90° East  Level FlightAware Approximate
Wed 03:07:00 PM 35.8776 -78.7875 90° East  Level Estimated
Wed 03:08:00 PM 35.8776 -78.7875 90° East  Level Estimated
Wed 03:09:00 PM 35.8776 -78.7875 90° East  Level Estimated
Wed 03:10:00 PM 35.8776 -78.7875 90° East  Level Estimated
Wed 03:11:00 PM 35.8776 -78.7875 90° East  Level Estimated

Login

Don't have an account? Register now (free) for customized features, flight alerts, and more!